Time;durP1;ratioP1;P1;durP2;ratioP2;P2;SDS_P1;SDS_P2;PMS_P1;PMS_P2;Temp;Humidity;BMP_temperature;BMP_pressure;BME280_temperature;BME280_humidity;BME280_pressure;Samples;Min_cycle;Max_cycle;Signal;HPM_P1;HPM_P2
2023/05/31 00:00:24;;;;;;;9.00;8.70;;;13.60;99.90;;;;;;5041346;28;20456;-68
2023/05/31 00:02:51;;;;;;;10.70;10.00;;;13.50;99.90;;;;;;5043854;28;20463;-68
2023/05/31 00:05:19;;;;;;;9.53;9.23;;;13.50;99.90;;;;;;5040473;28;20502;-68
2023/05/31 00:07:46;;;;;;;9.13;8.83;;;13.50;99.90;;;;;;5047474;28;21010;-68
2023/05/31 00:10:13;;;;;;;8.83;8.53;;;13.40;99.90;;;;;;5039394;28;20469;-68
2023/05/31 00:12:40;;;;;;;8.60;8.30;;;13.40;99.90;;;;;;5034682;28;20461;-68
2023/05/31 00:15:08;;;;;;;10.63;9.97;;;13.30;99.90;;;;;;5039612;28;20460;-68
2023/05/31 00:17:35;;;;;;;8.50;8.20;;;13.40;99.90;;;;;;5044068;28;20492;-68
2023/05/31 00:20:02;;;;;;;9.93;9.20;;;13.40;99.90;;;;;;5044312;28;20506;-68
2023/05/31 00:22:30;;;;;;;9.33;8.93;;;13.40;99.90;;;;;;5040116;28;20870;-68
2023/05/31 00:24:58;;;;;;;9.17;8.87;;;13.30;99.90;;;;;;5046644;28;20513;-68
2023/05/31 00:27:25;;;;;;;11.93;11.40;;;13.30;99.90;;;;;;5042239;28;20471;-68
2023/05/31 00:29:52;;;;;;;9.30;9.00;;;13.30;99.90;;;;;;5048061;28;20893;-68
2023/05/31 00:32:20;;;;;;;9.27;8.97;;;13.30;99.90;;;;;;5044508;28;20562;-68
2023/05/31 00:34:47;;;;;;;8.90;8.60;;;13.20;99.90;;;;;;5042430;28;20477;-68
2023/05/31 00:37:14;;;;;;;9.40;9.00;;;13.20;99.90;;;;;;5035879;28;20537;-68
2023/05/31 00:39:43;;;;;;;8.70;8.40;;;13.10;99.90;;;;;;5045545;28;20497;-68
2023/05/31 00:42:10;;;;;;;10.37;9.97;;;13.00;99.90;;;;;;5037042;28;20475;-68
2023/05/31 00:44:37;;;;;;;9.80;9.40;;;12.90;99.90;;;;;;5038694;28;20457;-67
2023/05/31 00:47:05;;;;;;;8.70;8.40;;;12.80;99.90;;;;;;5041449;28;20812;-67
2023/05/31 00:49:32;;;;;;;9.37;9.07;;;12.60;99.90;;;;;;5041946;28;20924;-68
2023/05/31 00:51:59;;;;;;;7.30;7.10;;;12.60;99.90;;;;;;5041199;28;20762;-68
2023/05/31 00:54:26;;;;;;;8.20;7.90;;;12.50;99.90;;;;;;5038611;28;20534;-67
2023/05/31 00:56:55;;;;;;;8.07;7.77;;;12.30;99.90;;;;;;5041124;28;20477;-69
2023/05/31 00:59:21;;;;;;;7.40;7.20;;;12.20;99.90;;;;;;5035791;28;20546;-68
2023/05/31 01:01:48;;;;;;;8.20;7.90;;;12.10;99.90;;;;;;5047609;28;20464;-68
2023/05/31 01:04:16;;;;;;;7.97;7.67;;;12.10;99.90;;;;;;5036985;28;20444;-68
2023/05/31 01:06:43;;;;;;;7.40;7.20;;;12.10;99.90;;;;;;5044734;28;20474;-67
2023/05/31 01:09:11;;;;;;;7.50;7.30;;;12.10;99.90;;;;;;5042789;28;20558;-68
2023/05/31 01:11:59;;;;;;;8.63;8.33;;;12.00;99.90;;;;;;5030557;28;20870;-67
2023/05/31 01:14:34;;;;;;;6.67;6.47;;;12.00;99.90;;;;;;5037647;28;20517;-67
2023/05/31 01:17:20;;;;;;;6.87;6.67;;;11.90;99.90;;;;;;5038926;28;20499;-68
2023/05/31 01:19:53;;;;;;;6.87;6.67;;;11.80;99.90;;;;;;5041559;28;21010;-68
2023/05/31 01:22:42;;;;;;;6.73;6.53;;;11.90;99.90;;;;;;5035670;28;20463;-68
2023/05/31 01:25:36;;;;;;;6.90;6.70;;;11.80;99.90;;;;;;5035974;28;20461;-67
2023/05/31 01:28:08;;;;;;;22.53;7.67;;;11.80;99.90;;;;;;5045126;28;20959;-67
2023/05/31 01:30:36;;;;;;;6.43;6.23;;;11.80;99.90;;;;;;5040195;28;20476;-68
2023/05/31 01:33:08;;;;;;;6.50;6.30;;;11.80;99.90;;;;;;5048868;28;20940;-67
2023/05/31 01:35:35;;;;;;;7.07;6.87;;;11.70;99.90;;;;;;5034691;28;20481;-68
2023/05/31 01:38:04;;;;;;;7.13;6.93;;;11.60;99.90;;;;;;5039886;28;20579;-67
2023/05/31 01:40:32;;;;;;;5.77;5.57;;;11.60;99.90;;;;;;5043872;28;20474;-67
2023/05/31 01:43:00;;;;;;;5.93;5.73;;;11.50;99.90;;;;;;5042100;28;20541;-67
2023/05/31 01:45:29;;;;;;;6.60;6.40;;;11.50;99.90;;;;;;5032195;28;20542;-67
2023/05/31 01:48:02;;;;;;;5.47;5.33;;;11.40;99.90;;;;;;5034330;28;20474;-68
2023/05/31 01:50:30;;;;;;;6.83;6.53;;;11.40;99.90;;;;;;5043687;28;20517;-68
2023/05/31 01:52:57;;;;;;;5.70;5.50;;;11.30;99.90;;;;;;5038803;28;20468;-68
2023/05/31 01:55:25;;;;;;;8.13;7.83;;;11.30;99.90;;;;;;5042029;28;20789;-68
2023/05/31 01:57:53;;;;;;;6.10;5.90;;;11.30;99.90;;;;;;5034084;28;20540;-67
2023/05/31 02:00:22;;;;;;;6.50;6.30;;;11.20;99.90;;;;;;5044040;28;20460;-67
2023/05/31 02:02:53;;;;;;;6.13;5.90;;;11.20;99.90;;;;;;5046516;28;20950;-68
2023/05/31 02:05:20;;;;;;;7.67;7.13;;;11.30;99.90;;;;;;5043411;28;20463;-67
2023/05/31 02:07:48;;;;;;;6.20;5.90;;;11.30;99.90;;;;;;5047914;28;20464;-67
2023/05/31 02:10:16;;;;;;;5.70;5.50;;;11.30;99.90;;;;;;5035242;28;20460;-67
2023/05/31 02:12:43;;;;;;;6.00;5.80;;;11.30;99.90;;;;;;5041298;28;20861;-67
2023/05/31 02:15:12;;;;;;;7.53;7.23;;;11.30;99.90;;;;;;5046224;28;20471;-67
2023/05/31 02:17:40;;;;;;;5.83;5.63;;;11.30;99.90;;;;;;5039430;28;20479;-68
2023/05/31 02:20:10;;;;;;;6.77;6.57;;;11.30;99.90;;;;;;5046606;28;20836;-67
2023/05/31 02:22:37;;;;;;;6.57;6.37;;;11.30;99.90;;;;;;5040896;28;20464;-67
2023/05/31 02:25:05;;;;;;;6.43;6.23;;;11.20;99.90;;;;;;5038544;28;20464;-68
2023/05/31 02:27:32;;;;;;;6.20;6.00;;;11.20;99.90;;;;;;5041674;28;20456;-68
2023/05/31 02:29:58;;;;;;;6.37;6.17;;;11.20;99.90;;;;;;5036057;28;20575;-67
2023/05/31 02:32:26;;;;;;;6.23;6.03;;;11.20;99.90;;;;;;5047106;28;20823;-67
2023/05/31 02:34:53;;;;;;;6.30;6.10;;;11.20;99.90;;;;;;5037987;28;20468;-67
2023/05/31 02:37:21;;;;;;;5.63;5.43;;;11.10;99.90;;;;;;5038625;28;20461;-67
2023/05/31 02:39:48;;;;;;;6.10;5.90;;;11.20;99.90;;;;;;5035539;28;20519;-67
2023/05/31 02:42:15;;;;;;;6.60;6.40;;;11.10;99.90;;;;;;5036884;28;20464;-67
2023/05/31 02:44:42;;;;;;;6.47;6.27;;;11.00;99.90;;;;;;5041400;28;20476;-68
2023/05/31 02:47:08;;;;;;;7.13;6.93;;;11.10;99.90;;;;;;5039586;28;20829;-68
2023/05/31 02:49:35;;;;;;;7.30;7.10;;;10.90;99.90;;;;;;5041489;28;20491;-67
2023/05/31 02:52:02;;;;;;;7.93;7.63;;;10.90;99.90;;;;;;5037121;28;20468;-68
2023/05/31 02:54:30;;;;;;;8.63;8.33;;;10.90;99.90;;;;;;5037650;28;20465;-67
2023/05/31 02:56:57;;;;;;;7.27;7.07;;;10.90;99.90;;;;;;5034414;28;20460;-67
2023/05/31 02:59:24;;;;;;;7.77;7.47;;;10.80;99.90;;;;;;5042349;28;20495;-67
2023/05/31 03:01:51;;;;;;;7.50;7.30;;;10.80;99.90;;;;;;5041270;28;20464;-68
2023/05/31 03:04:17;;;;;;;8.73;8.33;;;10.80;99.90;;;;;;5035966;28;20463;-67
2023/05/31 03:06:45;;;;;;;9.23;8.80;;;10.80;99.90;;;;;;5039781;28;20463;-67
2023/05/31 03:09:16;;;;;;;9.90;9.47;;;10.90;99.90;;;;;;5046526;28;20464;-67
2023/05/31 03:11:44;;;;;;;7.70;7.50;;;10.90;99.90;;;;;;5038372;28;20486;-68
2023/05/31 03:14:11;;;;;;;7.90;7.67;;;11.00;99.90;;;;;;5043316;28;20467;-68
2023/05/31 03:16:38;;;;;;;8.27;7.97;;;10.90;99.90;;;;;;5032395;28;21153;-66
2023/05/31 03:19:05;;;;;;;8.47;8.17;;;10.90;99.90;;;;;;5040136;28;20507;-67
2023/05/31 03:21:31;;;;;;;12.13;8.20;;;10.80;99.90;;;;;;5048470;28;20456;-67
2023/05/31 03:23:58;;;;;;;8.60;8.30;;;10.80;99.90;;;;;;5045398;28;20471;-67
2023/05/31 03:26:25;;;;;;;8.93;8.33;;;10.80;99.90;;;;;;5042945;28;20467;-67
2023/05/31 03:28:54;;;;;;;8.83;8.53;;;10.80;99.90;;;;;;5035462;28;20987;-67
2023/05/31 03:31:21;;;;;;;8.77;8.47;;;10.80;99.90;;;;;;5033391;28;20491;-68
2023/05/31 03:33:48;;;;;;;8.40;8.10;;;10.70;99.90;;;;;;5046994;28;20826;-66
2023/05/31 03:36:15;;;;;;;8.90;8.60;;;10.70;99.90;;;;;;5045049;28;20472;-67
2023/05/31 03:38:42;;;;;;;9.83;9.50;;;10.60;99.90;;;;;;5036687;28;20590;-68
2023/05/31 03:41:08;;;;;;;8.80;8.50;;;10.60;99.90;;;;;;5046804;28;20523;-68
2023/05/31 03:43:36;;;;;;;9.00;8.70;;;10.60;99.90;;;;;;5044413;28;20469;-66
2023/05/31 03:46:04;;;;;;;9.17;8.83;;;10.60;99.90;;;;;;5043862;28;20934;-67
2023/05/31 03:48:31;;;;;;;12.97;11.83;;;10.60;99.90;;;;;;5039379;28;21306;-67
2023/05/31 03:50:58;;;;;;;9.77;9.40;;;10.60;99.90;;;;;;5047244;28;21002;-68
2023/05/31 03:53:25;;;;;;;8.90;8.60;;;10.60;99.90;;;;;;5037742;28;20464;-67
2023/05/31 03:55:52;;;;;;;9.50;9.20;;;10.60;99.90;;;;;;5042580;28;20958;-67
2023/05/31 03:58:20;;;;;;;10.43;10.00;;;10.60;99.90;;;;;;5041912;28;20551;-67
2023/05/31 04:00:47;;;;;;;9.63;9.33;;;10.70;99.90;;;;;;5036823;28;20456;-67
2023/05/31 04:03:16;;;;;;;9.30;9.00;;;10.80;99.90;;;;;;5046509;28;21019;-67
2023/05/31 04:05:43;;;;;;;9.80;9.50;;;10.80;99.90;;;;;;5048329;28;20460;-67
2023/05/31 04:08:10;;;;;;;10.10;9.70;;;10.70;99.90;;;;;;5036655;28;20975;-67
2023/05/31 04:10:37;;;;;;;10.33;9.93;;;10.80;99.90;;;;;;5043399;28;20805;-68
2023/05/31 04:13:04;;;;;;;10.40;10.00;;;10.80;99.90;;;;;;5044839;28;20547;-67
2023/05/31 04:15:30;;;;;;;9.90;9.53;;;10.90;99.90;;;;;;5044096;28;20464;-67
2023/05/31 04:17:57;;;;;;;11.00;10.60;;;10.90;99.90;;;;;;5045565;28;20459;-68
2023/05/31 04:20:25;;;;;;;10.00;9.60;;;11.00;99.90;;;;;;5046178;28;20511;-68
2023/05/31 04:22:53;;;;;;;11.80;11.10;;;11.00;99.90;;;;;;5047706;28;20460;-68
2023/05/31 04:25:20;;;;;;;10.30;9.90;;;11.00;99.90;;;;;;5042021;28;21401;-68
2023/05/31 04:27:47;;;;;;;9.67;9.37;;;11.10;99.90;;;;;;5037360;28;20464;-66
2023/05/31 04:30:14;;;;;;;11.80;10.87;;;11.20;99.90;;;;;;5043900;28;21110;-67
2023/05/31 04:32:41;;;;;;;12.07;11.43;;;11.30;99.90;;;;;;5038826;28;21359;-66
2023/05/31 04:35:08;;;;;;;9.77;9.37;;;11.40;99.90;;;;;;5034133;28;20480;-67
2023/05/31 04:37:36;;;;;;;9.27;8.97;;;11.50;99.90;;;;;;5041453;28;20463;-66
2023/05/31 04:40:05;;;;;;;10.57;10.13;;;11.50;99.90;;;;;;5041558;28;20590;-67
2023/05/31 04:42:32;;;;;;;10.93;10.33;;;11.60;99.90;;;;;;5040041;28;20530;-67
2023/05/31 04:45:01;;;;;;;9.40;9.10;;;11.70;99.90;;;;;;5032341;28;20470;-67
2023/05/31 04:47:28;;;;;;;11.83;11.10;;;11.80;99.90;;;;;;5037701;28;20464;-68
2023/05/31 04:49:56;;;;;;;11.13;10.53;;;11.90;99.90;;;;;;5049323;28;20463;-67
2023/05/31 04:52:24;;;;;;;11.37;10.77;;;11.90;99.90;;;;;;5036138;28;20825;-68
2023/05/31 04:54:53;;;;;;;9.40;9.00;;;12.00;99.90;;;;;;5047562;28;20551;-67
2023/05/31 04:57:20;;;;;;;10.17;9.77;;;12.00;99.90;;;;;;5044798;28;20514;-67
2023/05/31 04:59:47;;;;;;;11.47;10.73;;;12.10;99.90;;;;;;5037979;28;20903;-67
2023/05/31 05:02:14;;;;;;;8.67;8.30;;;12.20;99.90;;;;;;5037038;28;20518;-66
2023/05/31 05:04:41;;;;;;;8.70;8.40;;;12.30;99.90;;;;;;5035391;28;20502;-67
2023/05/31 05:07:08;;;;;;;9.63;9.20;;;12.30;99.90;;;;;;5037736;28;20479;-68
2023/05/31 05:09:36;;;;;;;9.90;9.40;;;12.30;99.90;;;;;;5036496;28;20468;-67
2023/05/31 05:12:04;;;;;;;7.83;7.57;;;12.40;99.90;;;;;;5031312;28;20827;-68
2023/05/31 05:14:32;;;;;;;8.60;8.30;;;12.50;99.90;;;;;;5033652;28;20826;-67
2023/05/31 05:16:59;;;;;;;8.10;7.80;;;12.60;99.90;;;;;;5039299;28;20487;-68
2023/05/31 05:19:26;;;;;;;10.73;9.93;;;12.60;99.90;;;;;;5036697;28;20564;-67
2023/05/31 05:21:52;;;;;;;9.63;9.07;;;12.70;99.90;;;;;;5032501;28;20467;-67
2023/05/31 05:24:19;;;;;;;10.20;9.60;;;12.80;99.90;;;;;;5036423;28;20844;-67
2023/05/31 05:26:47;;;;;;;10.97;7.80;;;12.90;99.90;;;;;;5038201;28;21010;-67
2023/05/31 05:29:16;;;;;;;8.47;8.03;;;13.00;99.90;;;;;;5035032;28;20504;-67
2023/05/31 05:31:42;;;;;;;8.53;8.03;;;13.00;99.90;;;;;;5042441;28;20539;-67
2023/05/31 05:34:10;;;;;;;8.17;7.87;;;13.20;99.90;;;;;;5034840;28;20457;-68
2023/05/31 05:36:37;;;;;;;8.70;8.23;;;13.30;99.90;;;;;;5033548;28;20468;-69
2023/05/31 05:39:06;;;;;;;9.43;9.03;;;13.50;99.90;;;;;;5034455;28;20461;-67
2023/05/31 05:41:33;;;;;;;9.10;8.60;;;13.60;99.90;;;;;;5035741;28;20832;-67
2023/05/31 05:44:00;;;;;;;8.37;8.07;;;13.60;99.90;;;;;;5034825;28;20880;-67
2023/05/31 05:46:29;;;;;;;11.93;11.03;;;13.80;99.90;;;;;;5032897;28;20881;-67
2023/05/31 05:48:56;;;;;;;8.80;8.50;;;13.90;99.90;;;;;;5034907;28;21326;-68
2023/05/31 05:51:23;;;;;;;11.50;10.80;;;14.00;99.90;;;;;;5033844;28;20543;-68
2023/05/31 05:53:50;;;;;;;11.77;10.83;;;14.10;99.90;;;;;;5035265;28;20954;-66
2023/05/31 05:56:18;;;;;;;10.83;10.27;;;14.20;99.90;;;;;;5038348;28;20854;-66
2023/05/31 05:58:46;;;;;;;11.03;10.63;;;14.30;99.90;;;;;;5033034;28;20510;-67
2023/05/31 06:01:18;;;;;;;11.33;10.80;;;14.50;99.90;;;;;;5031110;28;20577;-67
2023/05/31 06:03:47;;;;;;;13.77;12.63;;;14.50;99.90;;;;;;5035308;28;20456;-67
2023/05/31 06:06:14;;;;;;;13.90;13.07;;;14.60;99.90;;;;;;5035908;28;20518;-67
2023/05/31 06:08:41;;;;;;;13.07;12.47;;;14.70;99.90;;;;;;5039380;28;20460;-68
2023/05/31 06:11:08;;;;;;;13.00;12.30;;;14.80;99.90;;;;;;5038286;28;20475;-68
2023/05/31 06:13:35;;;;;;;12.40;11.90;;;15.00;99.90;;;;;;5037454;28;20469;-68
2023/05/31 06:16:04;;;;;;;11.90;11.40;;;15.10;99.90;;;;;;5037761;28;20647;-67
2023/05/31 06:18:30;;;;;;;12.10;11.60;;;15.20;99.90;;;;;;5039392;28;20475;-67
2023/05/31 06:20:59;;;;;;;13.10;12.50;;;15.30;99.90;;;;;;5036670;28;20599;-67
2023/05/31 06:23:26;;;;;;;14.40;13.50;;;15.40;99.90;;;;;;5031845;28;20480;-67
2023/05/31 06:25:53;;;;;;;15.67;14.77;;;15.40;99.90;;;;;;5041053;28;20468;-67
2023/05/31 06:28:21;;;;;;;13.57;12.57;;;15.50;99.90;;;;;;5043589;28;20546;-67
2023/05/31 06:30:47;;;;;;;12.73;12.23;;;15.60;99.90;;;;;;5033974;28;20518;-68
2023/05/31 06:33:14;;;;;;;13.90;13.20;;;15.60;99.90;;;;;;5037580;28;20470;-67
2023/05/31 06:35:42;;;;;;;12.20;11.70;;;15.80;99.90;;;;;;5037119;28;20492;-67
2023/05/31 06:38:16;;;;;;;13.93;13.23;;;15.80;99.90;;;;;;5033848;28;20539;-68
2023/05/31 06:40:44;;;;;;;15.97;15.07;;;15.90;99.90;;;;;;5036169;28;20479;-68
2023/05/31 06:43:11;;;;;;;13.70;13.10;;;16.10;99.90;;;;;;5031880;28;20480;-68
2023/05/31 06:45:41;;;;;;;14.50;13.80;;;16.20;99.90;;;;;;5032866;28;20527;-67
2023/05/31 06:48:09;;;;;;;14.10;13.50;;;16.30;99.90;;;;;;5021766;28;20461;-67
2023/05/31 06:50:36;;;;;;;16.47;15.57;;;16.30;99.90;;;;;;5041902;28;21126;-66
2023/05/31 06:53:03;;;;;;;13.43;12.83;;;16.60;99.90;;;;;;5030063;28;20514;-69
2023/05/31 06:55:31;;;;;;;12.80;12.30;;;16.70;99.90;;;;;;5038743;28;20464;-66
2023/05/31 06:57:59;;;;;;;14.97;14.30;;;16.80;99.90;;;;;;5038118;28;20464;-67
2023/05/31 07:00:26;;;;;;;14.17;13.57;;;16.90;99.90;;;;;;5039168;28;20808;-69
2023/05/31 07:02:53;;;;;;;15.27;14.57;;;17.00;99.90;;;;;;5035663;28;20467;-69
2023/05/31 07:05:20;;;;;;;14.57;13.87;;;17.00;99.90;;;;;;5031950;28;20537;-66
2023/05/31 07:07:47;;;;;;;13.73;13.13;;;17.10;99.90;;;;;;5037753;28;20667;-69
2023/05/31 07:10:15;;;;;;;13.93;13.33;;;17.10;99.90;;;;;;5038260;28;20856;-68
2023/05/31 07:12:43;;;;;;;14.10;13.50;;;17.10;99.90;;;;;;5042594;28;20466;-69
2023/05/31 07:15:11;;;;;;;14.03;13.43;;;17.10;99.90;;;;;;5037143;28;20468;-69
2023/05/31 07:17:38;;;;;;;15.03;14.20;;;17.30;99.90;;;;;;5032748;28;20460;-68
2023/05/31 07:20:07;;;;;;;14.60;14.00;;;17.50;99.90;;;;;;5034547;28;20511;-68
2023/05/31 07:22:34;;;;;;;14.87;14.17;;;17.40;99.90;;;;;;5035173;28;20472;-69
2023/05/31 07:25:00;;;;;;;16.77;15.73;;;17.50;99.90;;;;;;5038189;28;20486;-66
2023/05/31 07:27:27;;;;;;;15.70;14.97;;;17.70;99.90;;;;;;5034094;28;20537;-67
2023/05/31 07:29:55;;;;;;;14.30;13.70;;;17.70;99.90;;;;;;5041191;28;20484;-67
2023/05/31 07:32:23;;;;;;;14.93;14.23;;;17.90;99.90;;;;;;5038407;28;20997;-66
2023/05/31 07:34:50;;;;;;;15.73;14.90;;;17.80;99.90;;;;;;5034889;28;20475;-66
2023/05/31 07:37:17;;;;;;;14.73;13.93;;;17.90;99.90;;;;;;5034248;28;20468;-69
2023/05/31 07:39:45;;;;;;;14.80;14.10;;;18.00;99.90;;;;;;5035056;28;20826;-69
2023/05/31 07:42:13;;;;;;;14.50;13.90;;;18.20;99.90;;;;;;5038861;28;20463;-69
2023/05/31 07:44:40;;;;;;;14.60;14.00;;;18.20;99.90;;;;;;5038800;28;20453;-66
2023/05/31 07:47:09;;;;;;;14.90;14.23;;;18.30;99.90;;;;;;5042033;28;20509;-66
2023/05/31 07:49:36;;;;;;;15.73;15.03;;;18.50;99.90;;;;;;5041426;28;20471;-67
2023/05/31 07:52:04;;;;;;;14.50;13.90;;;18.90;99.90;;;;;;5039884;28;20460;-66
2023/05/31 07:54:32;;;;;;;14.80;14.10;;;19.10;99.90;;;;;;5043996;28;20464;-66
2023/05/31 07:56:58;;;;;;;15.00;14.40;;;19.10;99.90;;;;;;5042616;28;20472;-66
2023/05/31 07:59:26;;;;;;;15.83;15.00;;;19.10;99.90;;;;;;5038135;28;20510;-66
2023/05/31 08:01:52;;;;;;;15.87;14.47;;;19.20;99.90;;;;;;5043983;28;20610;-67
2023/05/31 08:04:21;;;;;;;16.47;15.50;;;19.50;99.90;;;;;;5033795;28;20958;-67
2023/05/31 08:06:48;;;;;;;16.90;16.00;;;19.80;99.90;;;;;;5041087;28;20710;-67
2023/05/31 08:09:15;;;;;;;14.40;13.80;;;20.20;99.90;;;;;;5040453;28;20966;-67
2023/05/31 08:11:43;;;;;;;15.03;14.40;;;20.70;99.90;;;;;;5046221;28;20965;-67
2023/05/31 08:14:10;;;;;;;15.73;15.03;;;21.40;99.90;;;;;;5040119;28;20514;-67
2023/05/31 08:16:39;;;;;;;14.87;14.27;;;21.80;99.90;;;;;;5041638;28;20460;-67
2023/05/31 08:19:06;;;;;;;19.13;17.83;;;22.30;99.90;;;;;;5043666;28;21022;-67
2023/05/31 08:21:36;;;;;;;15.83;15.13;;;23.00;99.90;;;;;;5041810;28;20871;-67
2023/05/31 08:24:03;;;;;;;15.20;14.60;;;23.50;99.90;;;;;;5040778;28;20917;-67
2023/05/31 08:26:29;;;;;;;16.60;15.90;;;23.40;99.90;;;;;;5041364;28;20452;-67
2023/05/31 08:28:56;;;;;;;16.43;15.63;;;23.80;99.90;;;;;;5033126;28;20460;-67
2023/05/31 08:31:23;;;;;;;14.93;14.30;;;24.30;99.90;;;;;;5044950;28;20476;-68
2023/05/31 08:33:54;;;;;;;15.00;14.40;;;24.20;99.90;;;;;;5037305;28;20471;-67
2023/05/31 08:36:21;;;;;;;15.53;14.93;;;25.00;99.90;;;;;;5041205;28;20514;-67
2023/05/31 08:38:51;;;;;;;15.70;15.10;;;25.70;99.90;;;;;;5042456;28;20922;-67
2023/05/31 08:41:18;;;;;;;15.03;14.43;;;25.90;99.90;;;;;;5040869;28;20950;-67
2023/05/31 08:43:46;;;;;;;16.53;15.80;;;26.10;99.90;;;;;;5040683;28;20467;-67
2023/05/31 08:46:15;;;;;;;15.10;14.50;;;25.40;99.90;;;;;;5036267;28;21058;-68
2023/05/31 08:48:49;;;;;;;16.40;15.60;;;25.00;99.90;;;;;;5039218;28;20452;-68
2023/05/31 08:51:17;;;;;;;16.00;15.30;;;25.00;99.90;;;;;;5043826;28;21017;-68
2023/05/31 08:53:44;;;;;;;15.80;15.10;;;25.60;99.90;;;;;;5043331;28;20797;-68
2023/05/31 08:56:14;;;;;;;15.53;14.93;;;26.00;99.90;;;;;;5045795;28;20460;-68
2023/05/31 08:58:43;;;;;;;16.17;15.47;;;26.00;99.70;;;;;;5034405;28;20807;-68
2023/05/31 09:01:12;;;;;;;15.37;14.77;;;26.50;99.50;;;;;;5038175;28;20870;-67
2023/05/31 09:03:40;;;;;;;15.73;15.03;;;26.60;98.00;;;;;;5035910;28;20951;-67
2023/05/31 09:06:08;;;;;;;15.20;14.60;;;26.80;97.80;;;;;;5035923;28;20461;-68
2023/05/31 09:08:34;;;;;;;16.33;15.63;;;26.40;98.50;;;;;;5036884;28;20818;-68
2023/05/31 09:11:02;;;;;;;15.30;14.70;;;26.00;96.40;;;;;;5037504;28;20471;-68
2023/05/31 09:13:30;;;;;;;15.67;14.80;;;26.40;96.10;;;;;;5040327;28;20526;-68
2023/05/31 09:15:59;;;;;;;15.57;14.80;;;26.70;96.50;;;;;;5033870;28;20460;-68
2023/05/31 09:18:31;;;;;;;15.27;14.67;;;26.90;93.90;;;;;;5037281;28;20464;-68
2023/05/31 09:20:58;;;;;;;15.40;14.80;;;27.30;94.50;;;;;;5042982;28;20488;-69
2023/05/31 09:23:26;;;;;;;17.07;16.17;;;27.60;92.80;;;;;;5042289;28;20806;-68
2023/05/31 09:25:53;;;;;;;15.87;15.17;;;27.80;92.60;;;;;;5040432;28;20487;-68
2023/05/31 09:28:21;;;;;;;15.67;15.07;;;27.80;91.50;;;;;;5033342;28;20464;-68
2023/05/31 09:31:03;;;;;;;15.77;15.17;;;27.20;91.90;;;;;;5040517;28;20493;-68
2023/05/31 09:33:40;;;;;;;16.10;15.40;;;26.90;91.30;;;;;;5043760;28;20863;-68
2023/05/31 09:36:07;;;;;;;18.37;17.47;;;27.40;90.00;;;;;;5040535;28;20517;-68
2023/05/31 09:38:35;;;;;;;15.47;14.87;;;27.40;91.10;;;;;;5035614;28;20464;-69
2023/05/31 09:41:15;;;;;;;16.27;15.47;;;28.40;90.40;;;;;;5040249;28;20499;-69
2023/05/31 09:43:44;;;;;;;15.20;14.60;;;27.90;89.70;;;;;;5044371;28;20463;-69
2023/05/31 09:46:17;;;;;;;15.13;14.53;;;27.60;87.50;;;;;;5043033;28;20556;-69
2023/05/31 09:48:45;;;;;;;16.17;15.50;;;28.50;85.30;;;;;;5037276;28;20468;-69
2023/05/31 09:51:13;;;;;;;16.03;15.33;;;29.80;83.90;;;;;;5036820;28;20465;-69
2023/05/31 09:53:43;;;;;;;15.30;14.70;;;30.20;80.70;;;;;;5036457;28;20555;-69
2023/05/31 09:56:11;;;;;;;15.30;14.70;;;30.80;78.50;;;;;;5041797;28;20473;-69
2023/05/31 09:58:38;;;;;;;15.10;14.50;;;30.70;71.50;;;;;;5040636;28;20685;-69
2023/05/31 10:01:06;;;;;;;15.20;14.60;;;30.40;75.20;;;;;;5042275;28;20542;-69
2023/05/31 10:03:35;;;;;;;14.30;13.70;;;30.60;70.80;;;;;;5038873;28;20459;-69
2023/05/31 10:06:03;;;;;;;15.33;14.73;;;30.40;68.30;;;;;;5039279;28;20530;-69
2023/05/31 10:08:32;;;;;;;15.40;14.60;;;30.50;69.20;;;;;;5036406;28;20495;-69
2023/05/31 10:11:01;;;;;;;14.47;13.87;;;30.50;65.10;;;;;;5041066;28;20455;-69
2023/05/31 10:13:29;;;;;;;14.90;14.30;;;30.30;66.80;;;;;;5040207;28;20464;-68
2023/05/31 10:15:58;;;;;;;15.00;14.40;;;30.50;66.30;;;;;;5037193;28;20459;-69
2023/05/31 10:18:29;;;;;;;15.03;14.33;;;30.30;64.00;;;;;;5040933;28;20973;-69
2023/05/31 10:21:01;;;;;;;15.30;14.60;;;30.50;63.10;;;;;;5041675;28;20598;-69
2023/05/31 10:23:30;;;;;;;14.57;13.97;;;30.30;63.90;;;;;;5041390;28;20581;-69
2023/05/31 10:26:06;;;;;;;15.40;14.80;;;30.90;63.30;;;;;;5047036;28;20467;-69
2023/05/31 10:28:37;;;;;;;14.53;13.93;;;31.10;61.20;;;;;;5048518;28;20501;-69
2023/05/31 10:31:05;;;;;;;14.60;14.00;;;30.60;61.90;;;;;;5040783;28;20487;-69
2023/05/31 10:33:33;;;;;;;14.50;13.90;;;31.00;63.00;;;;;;5042287;28;20456;-69
2023/05/31 10:36:02;;;;;;;15.63;14.70;;;31.40;60.00;;;;;;5040080;28;20460;-69
2023/05/31 10:38:36;;;;;;;15.30;14.50;;;30.70;57.50;;;;;;5044524;28;20479;-68
2023/05/31 10:41:07;;;;;;;14.47;13.87;;;30.30;58.70;;;;;;5045799;28;20872;-69
2023/05/31 10:43:39;;;;;;;14.50;13.90;;;31.00;57.60;;;;;;5041781;28;20838;-68
2023/05/31 10:46:10;;;;;;;14.47;13.90;;;31.40;57.10;;;;;;5049814;28;20464;-68
2023/05/31 10:48:44;;;;;;;20.87;15.47;;;31.10;55.90;;;;;;5038415;28;20468;-69
2023/05/31 10:51:12;;;;;;;16.17;15.00;;;31.20;57.60;;;;;;5042893;28;20464;-68
2023/05/31 10:53:40;;;;;;;14.93;14.33;;;31.40;54.50;;;;;;5045552;28;20509;-69
2023/05/31 10:56:10;;;;;;;16.37;15.67;;;31.50;53.60;;;;;;5039128;28;20460;-68
2023/05/31 10:58:38;;;;;;;15.20;14.60;;;32.10;53.30;;;;;;5039971;28;20467;-68
2023/05/31 11:01:08;;;;;;;15.40;14.70;;;31.50;53.00;;;;;;5043188;28;21084;-69
2023/05/31 11:03:36;;;;;;;14.90;14.30;;;30.40;52.30;;;;;;5045002;28;20942;-68
2023/05/31 11:06:08;;;;;;;15.27;14.67;;;30.50;53.80;;;;;;5040809;28;20811;-69
2023/05/31 11:08:37;;;;;;;16.30;15.30;;;31.10;52.60;;;;;;5038108;28;20530;-69
2023/05/31 11:11:27;;;;;;;15.60;14.80;;;31.20;52.70;;;;;;5043975;28;20487;-69
2023/05/31 11:14:03;;;;;;;15.20;14.60;;;30.30;51.80;;;;;;5040156;28;20479;-69
2023/05/31 11:16:32;;;;;;;16.67;15.67;;;30.20;51.30;;;;;;5046104;28;20467;-69
2023/05/31 11:19:04;;;;;;;17.40;16.60;;;30.40;52.20;;;;;;5037600;28;20490;-69
2023/05/31 11:21:48;;;;;;;14.70;14.10;;;30.10;53.20;;;;;;5045942;28;20484;-70
2023/05/31 11:24:28;;;;;;;15.40;14.80;;;30.70;53.00;;;;;;5040348;28;20471;-69
2023/05/31 11:26:57;;;;;;;15.10;14.50;;;31.40;52.30;;;;;;5039020;28;20463;-69
2023/05/31 11:29:24;;;;;;;16.80;15.73;;;32.50;51.60;;;;;;5042636;28;20874;-69
2023/05/31 11:31:59;;;;;;;15.80;14.90;;;32.30;50.90;;;;;;5043841;28;20468;-69
2023/05/31 11:34:29;;;;;;;15.60;14.90;;;32.00;50.90;;;;;;5041953;28;20520;-69
2023/05/31 11:36:59;;;;;;;15.53;14.83;;;31.40;50.50;;;;;;5039530;28;20464;-69
2023/05/31 11:39:28;;;;;;;14.90;14.30;;;30.80;51.30;;;;;;5040030;28;20463;-69
2023/05/31 11:41:56;;;;;;;14.30;13.70;;;30.90;51.70;;;;;;5037097;28;20476;-69
2023/05/31 11:44:28;;;;;;;15.60;15.00;;;30.70;51.30;;;;;;5047515;28;20472;-69
2023/05/31 11:47:02;;;;;;;14.43;13.83;;;30.70;50.80;;;;;;5047725;28;20567;-69
2023/05/31 11:49:31;;;;;;;14.27;13.67;;;30.80;51.40;;;;;;5043248;28;20491;-69
2023/05/31 11:51:58;;;;;;;15.83;15.00;;;31.50;50.60;;;;;;5040549;28;20555;-69
2023/05/31 11:54:32;;;;;;;15.00;14.30;;;31.90;50.20;;;;;;5038729;28;20461;-69
2023/05/31 11:57:02;;;;;;;14.70;14.10;;;31.10;50.90;;;;;;5037224;28;20563;-69
2023/05/31 11:59:31;;;;;;;15.20;14.60;;;31.30;51.10;;;;;;5038549;28;20452;-69
2023/05/31 12:02:00;;;;;;;13.87;13.37;;;31.30;50.90;;;;;;5048235;28;20533;-69
2023/05/31 12:04:32;;;;;;;14.43;13.83;;;31.00;50.10;;;;;;5045954;28;20950;-69
2023/05/31 12:06:59;;;;;;;14.60;14.00;;;30.90;50.00;;;;;;5039976;28;20871;-69
2023/05/31 12:09:26;;;;;;;14.07;13.50;;;31.70;50.30;;;;;;5033438;28;20467;-69
2023/05/31 12:11:56;;;;;;;15.37;14.10;;;32.20;49.60;;;;;;5041123;28;20463;-69
2023/05/31 12:14:24;;;;;;;15.20;14.50;;;32.60;49.30;;;;;;5038144;28;20464;-69
2023/05/31 12:16:52;;;;;;;16.40;15.60;;;32.50;48.60;;;;;;5045248;28;20542;-69
2023/05/31 12:19:19;;;;;;;15.20;14.40;;;32.20;50.00;;;;;;5035553;28;20485;-69
2023/05/31 12:21:46;;;;;;;15.67;14.97;;;32.10;48.80;;;;;;5045038;28;20821;-69
2023/05/31 12:24:14;;;;;;;15.03;14.33;;;32.10;48.10;;;;;;5036068;28;20821;-69
2023/05/31 12:26:42;;;;;;;13.77;13.27;;;32.60;48.10;;;;;;5037623;28;20472;-70
2023/05/31 12:29:11;;;;;;;14.60;14.00;;;32.90;48.20;;;;;;5036808;28;21069;-69
2023/05/31 12:31:38;;;;;;;13.93;13.33;;;33.10;48.00;;;;;;5035189;28;20488;-69
2023/05/31 12:34:10;;;;;;;13.80;13.30;;;32.80;48.20;;;;;;5037797;28;20483;-69
2023/05/31 12:36:43;;;;;;;14.93;14.33;;;33.10;48.50;;;;;;5041933;28;20472;-69
2023/05/31 12:39:11;;;;;;;13.03;12.53;;;32.40;47.30;;;;;;5039403;28;20452;-69
2023/05/31 12:41:38;;;;;;;13.60;13.10;;;32.80;48.70;;;;;;5038632;28;20588;-69